sensor_id;sensor_type;location;lat;lon;timestamp;P1;durP1;ratioP1;P2;durP2;ratioP2
19151;SDS011;9708;53.114;9.388;2023-04-05T00:02:22;1.47;;;1.40;;
19151;SDS011;9708;53.114;9.388;2023-04-05T00:04:54;1.63;;;1.20;;
19151;SDS011;9708;53.114;9.388;2023-04-05T00:07:22;0.97;;;0.97;;
19151;SDS011;9708;53.114;9.388;2023-04-05T00:09:51;1.77;;;1.67;;
19151;SDS011;9708;53.114;9.388;2023-04-05T00:12:18;1.63;;;1.53;;
19151;SDS011;9708;53.114;9.388;2023-04-05T00:14:45;2.63;;;1.73;;
19151;SDS011;9708;53.114;9.388;2023-04-05T00:17:12;2.43;;;2.20;;
19151;SDS011;9708;53.114;9.388;2023-04-05T00:19:39;4.37;;;1.80;;
19151;SDS011;9708;53.114;9.388;2023-04-05T00:22:07;1.63;;;1.33;;
19151;SDS011;9708;53.114;9.388;2023-04-05T00:24:34;1.20;;;1.10;;
19151;SDS011;9708;53.114;9.388;2023-04-05T00:27:07;1.57;;;1.50;;
19151;SDS011;9708;53.114;9.388;2023-04-05T00:29:34;1.40;;;1.30;;
19151;SDS011;9708;53.114;9.388;2023-04-05T00:32:01;1.40;;;1.30;;
19151;SDS011;9708;53.114;9.388;2023-04-05T00:34:28;2.50;;;1.70;;
19151;SDS011;9708;53.114;9.388;2023-04-05T00:36:56;3.93;;;1.90;;
19151;SDS011;9708;53.114;9.388;2023-04-05T00:39:23;1.90;;;1.57;;
19151;SDS011;9708;53.114;9.388;2023-04-05T00:41:50;1.77;;;1.67;;
19151;SDS011;9708;53.114;9.388;2023-04-05T00:44:18;2.00;;;1.60;;
19151;SDS011;9708;53.114;9.388;2023-04-05T00:46:45;2.60;;;2.20;;
19151;SDS011;9708;53.114;9.388;2023-04-05T00:49:12;2.00;;;1.80;;
19151;SDS011;9708;53.114;9.388;2023-04-05T00:51:38;2.00;;;1.80;;
19151;SDS011;9708;53.114;9.388;2023-04-05T00:54:06;4.87;;;2.30;;
19151;SDS011;9708;53.114;9.388;2023-04-05T00:56:33;2.47;;;2.17;;
19151;SDS011;9708;53.114;9.388;2023-04-05T00:59:00;1.20;;;1.20;;
19151;SDS011;9708;53.114;9.388;2023-04-05T01:01:28;2.40;;;1.80;;
19151;SDS011;9708;53.114;9.388;2023-04-05T01:04:02;1.33;;;1.20;;
19151;SDS011;9708;53.114;9.388;2023-04-05T01:06:42;1.00;;;1.00;;
19151;SDS011;9708;53.114;9.388;2023-04-05T01:09:20;1.73;;;1.63;;
19151;SDS011;9708;53.114;9.388;2023-04-05T01:11:55;1.77;;;1.57;;
19151;SDS011;9708;53.114;9.388;2023-04-05T01:14:23;1.53;;;1.53;;
19151;SDS011;9708;53.114;9.388;2023-04-05T01:16:52;1.67;;;1.57;;
19151;SDS011;9708;53.114;9.388;2023-04-05T01:19:22;1.43;;;1.30;;
19151;SDS011;9708;53.114;9.388;2023-04-05T01:21:57;1.77;;;1.40;;
19151;SDS011;9708;53.114;9.388;2023-04-05T01:24:50;1.53;;;1.43;;
19151;SDS011;9708;53.114;9.388;2023-04-05T01:27:38;2.67;;;1.30;;
19151;SDS011;9708;53.114;9.388;2023-04-05T01:30:22;1.37;;;1.27;;
19151;SDS011;9708;53.114;9.388;2023-04-05T01:32:54;1.47;;;1.37;;
19151;SDS011;9708;53.114;9.388;2023-04-05T01:35:29;1.43;;;1.30;;
19151;SDS011;9708;53.114;9.388;2023-04-05T01:38:03;1.53;;;1.47;;
19151;SDS011;9708;53.114;9.388;2023-04-05T01:40:33;1.23;;;1.17;;
19151;SDS011;9708;53.114;9.388;2023-04-05T01:43:02;1.93;;;1.83;;
19151;SDS011;9708;53.114;9.388;2023-04-05T01:45:39;3.07;;;2.03;;
19151;SDS011;9708;53.114;9.388;2023-04-05T01:48:06;9.13;;;2.27;;
19151;SDS011;9708;53.114;9.388;2023-04-05T01:50:33;4.60;;;2.60;;
19151;SDS011;9708;53.114;9.388;2023-04-05T01:52:59;4.00;;;2.67;;
19151;SDS011;9708;53.114;9.388;2023-04-05T01:55:26;9.87;;;3.50;;
19151;SDS011;9708;53.114;9.388;2023-04-05T01:57:53;7.00;;;2.73;;
19151;SDS011;9708;53.114;9.388;2023-04-05T02:00:21;3.70;;;2.63;;
19151;SDS011;9708;53.114;9.388;2023-04-05T02:02:49;6.90;;;2.97;;
19151;SDS011;9708;53.114;9.388;2023-04-05T02:05:16;4.27;;;2.47;;
19151;SDS011;9708;53.114;9.388;2023-04-05T02:07:43;7.27;;;2.57;;
19151;SDS011;9708;53.114;9.388;2023-04-05T02:10:10;3.70;;;2.00;;
19151;SDS011;9708;53.114;9.388;2023-04-05T02:12:37;2.07;;;1.97;;
19151;SDS011;9708;53.114;9.388;2023-04-05T02:15:04;2.40;;;1.80;;
19151;SDS011;9708;53.114;9.388;2023-04-05T02:17:31;1.63;;;1.53;;
19151;SDS011;9708;53.114;9.388;2023-04-05T02:20:05;1.40;;;1.30;;
19151;SDS011;9708;53.114;9.388;2023-04-05T02:22:32;2.77;;;1.87;;
19151;SDS011;9708;53.114;9.388;2023-04-05T02:25:00;1.67;;;1.57;;
19151;SDS011;9708;53.114;9.388;2023-04-05T02:27:28;1.70;;;1.60;;
19151;SDS011;9708;53.114;9.388;2023-04-05T02:29:55;3.50;;;1.43;;
19151;SDS011;9708;53.114;9.388;2023-04-05T02:32:22;1.40;;;1.30;;
19151;SDS011;9708;53.114;9.388;2023-04-05T02:34:49;1.90;;;1.80;;
19151;SDS011;9708;53.114;9.388;2023-04-05T02:37:18;1.63;;;1.53;;
19151;SDS011;9708;53.114;9.388;2023-04-05T02:39:45;1.63;;;1.53;;
19151;SDS011;9708;53.114;9.388;2023-04-05T02:42:12;1.77;;;1.67;;
19151;SDS011;9708;53.114;9.388;2023-04-05T02:44:38;1.30;;;1.30;;
19151;SDS011;9708;53.114;9.388;2023-04-05T02:47:05;3.27;;;1.70;;
19151;SDS011;9708;53.114;9.388;2023-04-05T02:49:32;1.70;;;1.57;;
19151;SDS011;9708;53.114;9.388;2023-04-05T02:51:59;1.63;;;1.53;;
19151;SDS011;9708;53.114;9.388;2023-04-05T02:54:27;1.67;;;1.57;;
19151;SDS011;9708;53.114;9.388;2023-04-05T02:56:54;2.47;;;2.27;;
19151;SDS011;9708;53.114;9.388;2023-04-05T02:59:21;4.17;;;1.93;;
19151;SDS011;9708;53.114;9.388;2023-04-05T03:01:48;1.47;;;1.40;;
19151;SDS011;9708;53.114;9.388;2023-04-05T03:04:15;1.97;;;1.80;;
19151;SDS011;9708;53.114;9.388;2023-04-05T03:06:42;2.10;;;1.97;;
19151;SDS011;9708;53.114;9.388;2023-04-05T03:09:12;1.40;;;1.40;;
19151;SDS011;9708;53.114;9.388;2023-04-05T03:11:40;1.50;;;1.50;;
19151;SDS011;9708;53.114;9.388;2023-04-05T03:14:07;2.07;;;1.83;;
19151;SDS011;9708;53.114;9.388;2023-04-05T03:16:36;2.50;;;1.40;;
19151;SDS011;9708;53.114;9.388;2023-04-05T03:19:04;3.63;;;1.63;;
19151;SDS011;9708;53.114;9.388;2023-04-05T03:21:31;2.57;;;1.67;;
19151;SDS011;9708;53.114;9.388;2023-04-05T03:23:58;1.87;;;1.77;;
19151;SDS011;9708;53.114;9.388;2023-04-05T03:26:26;1.37;;;1.27;;
19151;SDS011;9708;53.114;9.388;2023-04-05T03:28:54;1.63;;;1.53;;
19151;SDS011;9708;53.114;9.388;2023-04-05T03:31:20;1.40;;;1.30;;
19151;SDS011;9708;53.114;9.388;2023-04-05T03:33:47;1.50;;;1.40;;
19151;SDS011;9708;53.114;9.388;2023-04-05T03:36:14;1.20;;;1.20;;
19151;SDS011;9708;53.114;9.388;2023-04-05T03:38:42;1.20;;;1.20;;
19151;SDS011;9708;53.114;9.388;2023-04-05T03:41:10;1.10;;;1.10;;
19151;SDS011;9708;53.114;9.388;2023-04-05T03:43:36;2.20;;;1.50;;
19151;SDS011;9708;53.114;9.388;2023-04-05T03:46:04;1.80;;;1.73;;
19151;SDS011;9708;53.114;9.388;2023-04-05T03:48:31;2.00;;;1.47;;
19151;SDS011;9708;53.114;9.388;2023-04-05T03:50:58;1.73;;;1.63;;
19151;SDS011;9708;53.114;9.388;2023-04-05T03:53:25;1.13;;;1.10;;
19151;SDS011;9708;53.114;9.388;2023-04-05T03:55:53;0.90;;;0.90;;
19151;SDS011;9708;53.114;9.388;2023-04-05T03:58:20;1.53;;;1.43;;
19151;SDS011;9708;53.114;9.388;2023-04-05T04:00:47;5.20;;;2.30;;
19151;SDS011;9708;53.114;9.388;2023-04-05T04:03:15;1.23;;;1.20;;
19151;SDS011;9708;53.114;9.388;2023-04-05T04:05:42;1.50;;;1.40;;
19151;SDS011;9708;53.114;9.388;2023-04-05T04:08:09;1.60;;;1.60;;
19151;SDS011;9708;53.114;9.388;2023-04-05T04:10:36;1.33;;;1.23;;
19151;SDS011;9708;53.114;9.388;2023-04-05T04:13:03;2.47;;;1.40;;
19151;SDS011;9708;53.114;9.388;2023-04-05T04:15:30;1.73;;;1.63;;
19151;SDS011;9708;53.114;9.388;2023-04-05T04:17:57;1.30;;;1.30;;
19151;SDS011;9708;53.114;9.388;2023-04-05T04:20:25;1.93;;;1.20;;
19151;SDS011;9708;53.114;9.388;2023-04-05T04:22:51;2.27;;;1.53;;
19151;SDS011;9708;53.114;9.388;2023-04-05T04:25:18;5.53;;;2.43;;
19151;SDS011;9708;53.114;9.388;2023-04-05T04:27:46;1.33;;;1.33;;
19151;SDS011;9708;53.114;9.388;2023-04-05T04:30:14;3.97;;;3.13;;
19151;SDS011;9708;53.114;9.388;2023-04-05T04:32:41;2.40;;;1.87;;
19151;SDS011;9708;53.114;9.388;2023-04-05T04:35:22;2.07;;;1.87;;
19151;SDS011;9708;53.114;9.388;2023-04-05T04:37:52;1.70;;;1.57;;
19151;SDS011;9708;53.114;9.388;2023-04-05T04:40:21;2.83;;;2.47;;
19151;SDS011;9708;53.114;9.388;2023-04-05T04:42:49;2.07;;;1.50;;
19151;SDS011;9708;53.114;9.388;2023-04-05T04:45:17;1.70;;;1.60;;
19151;SDS011;9708;53.114;9.388;2023-04-05T04:47:45;1.63;;;1.53;;
19151;SDS011;9708;53.114;9.388;2023-04-05T04:50:13;2.20;;;2.00;;
19151;SDS011;9708;53.114;9.388;2023-04-05T04:52:43;1.30;;;1.30;;
19151;SDS011;9708;53.114;9.388;2023-04-05T04:55:11;1.47;;;1.33;;
19151;SDS011;9708;53.114;9.388;2023-04-05T04:57:38;2.17;;;1.93;;
19151;SDS011;9708;53.114;9.388;2023-04-05T05:00:06;1.40;;;1.40;;
19151;SDS011;9708;53.114;9.388;2023-04-05T05:02:37;2.03;;;1.30;;
19151;SDS011;9708;53.114;9.388;2023-04-05T05:05:06;4.23;;;1.70;;
19151;SDS011;9708;53.114;9.388;2023-04-05T05:07:34;1.90;;;1.80;;
19151;SDS011;9708;53.114;9.388;2023-04-05T05:10:01;3.53;;;2.67;;
19151;SDS011;9708;53.114;9.388;2023-04-05T05:12:30;1.90;;;1.80;;
19151;SDS011;9708;53.114;9.388;2023-04-05T05:14:56;1.60;;;1.50;;
19151;SDS011;9708;53.114;9.388;2023-04-05T05:17:23;3.50;;;2.07;;
19151;SDS011;9708;53.114;9.388;2023-04-05T05:19:50;2.10;;;2.00;;
19151;SDS011;9708;53.114;9.388;2023-04-05T05:22:17;3.67;;;1.93;;
19151;SDS011;9708;53.114;9.388;2023-04-05T05:24:44;1.60;;;1.50;;
19151;SDS011;9708;53.114;9.388;2023-04-05T05:27:12;2.73;;;2.40;;
19151;SDS011;9708;53.114;9.388;2023-04-05T05:29:40;3.43;;;1.73;;
19151;SDS011;9708;53.114;9.388;2023-04-05T05:32:07;2.90;;;2.70;;
19151;SDS011;9708;53.114;9.388;2023-04-05T05:34:38;1.70;;;1.60;;
19151;SDS011;9708;53.114;9.388;2023-04-05T05:37:05;4.67;;;1.70;;
19151;SDS011;9708;53.114;9.388;2023-04-05T05:39:33;3.37;;;2.73;;
19151;SDS011;9708;53.114;9.388;2023-04-05T05:42:00;2.30;;;2.10;;
19151;SDS011;9708;53.114;9.388;2023-04-05T05:44:27;2.40;;;2.03;;
19151;SDS011;9708;53.114;9.388;2023-04-05T05:46:55;2.53;;;2.33;;
19151;SDS011;9708;53.114;9.388;2023-04-05T05:49:22;1.93;;;1.80;;
19151;SDS011;9708;53.114;9.388;2023-04-05T05:51:49;2.03;;;1.93;;
19151;SDS011;9708;53.114;9.388;2023-04-05T05:54:16;5.97;;;2.63;;
19151;SDS011;9708;53.114;9.388;2023-04-05T05:56:43;2.13;;;2.03;;
19151;SDS011;9708;53.114;9.388;2023-04-05T05:59:10;3.10;;;2.27;;
19151;SDS011;9708;53.114;9.388;2023-04-05T06:01:37;4.97;;;2.53;;
19151;SDS011;9708;53.114;9.388;2023-04-05T06:04:08;2.47;;;1.70;;
19151;SDS011;9708;53.114;9.388;2023-04-05T06:06:34;2.47;;;2.27;;
19151;SDS011;9708;53.114;9.388;2023-04-05T06:09:01;3.13;;;2.70;;
19151;SDS011;9708;53.114;9.388;2023-04-05T06:11:28;5.03;;;2.93;;
19151;SDS011;9708;53.114;9.388;2023-04-05T06:13:55;4.53;;;2.43;;
19151;SDS011;9708;53.114;9.388;2023-04-05T06:16:22;4.83;;;2.43;;
19151;SDS011;9708;53.114;9.388;2023-04-05T06:18:48;5.03;;;2.30;;
19151;SDS011;9708;53.114;9.388;2023-04-05T06:21:17;2.80;;;1.83;;
19151;SDS011;9708;53.114;9.388;2023-04-05T06:23:43;3.67;;;2.83;;
19151;SDS011;9708;53.114;9.388;2023-04-05T06:26:14;3.47;;;2.50;;
19151;SDS011;9708;53.114;9.388;2023-04-05T06:28:43;5.30;;;2.57;;
19151;SDS011;9708;53.114;9.388;2023-04-05T06:31:11;2.43;;;2.23;;
19151;SDS011;9708;53.114;9.388;2023-04-05T06:33:39;2.47;;;2.27;;
19151;SDS011;9708;53.114;9.388;2023-04-05T06:36:06;2.87;;;2.10;;
19151;SDS011;9708;53.114;9.388;2023-04-05T06:38:35;2.70;;;2.40;;
19151;SDS011;9708;53.114;9.388;2023-04-05T06:41:02;3.70;;;2.60;;
19151;SDS011;9708;53.114;9.388;2023-04-05T06:43:29;2.97;;;1.90;;
19151;SDS011;9708;53.114;9.388;2023-04-05T06:45:56;2.57;;;2.37;;
19151;SDS011;9708;53.114;9.388;2023-04-05T06:48:23;3.60;;;2.13;;
19151;SDS011;9708;53.114;9.388;2023-04-05T06:50:55;2.53;;;1.93;;
19151;SDS011;9708;53.114;9.388;2023-04-05T06:53:22;3.27;;;2.37;;
19151;SDS011;9708;53.114;9.388;2023-04-05T06:55:52;3.07;;;2.20;;
19151;SDS011;9708;53.114;9.388;2023-04-05T06:58:20;2.50;;;1.70;;
19151;SDS011;9708;53.114;9.388;2023-04-05T07:00:47;3.50;;;2.28;;
19151;SDS011;9708;53.114;9.388;2023-04-05T07:03:14;4.63;;;2.13;;
19151;SDS011;9708;53.114;9.388;2023-04-05T07:05:48;2.53;;;1.95;;
19151;SDS011;9708;53.114;9.388;2023-04-05T07:08:18;3.22;;;2.30;;
19151;SDS011;9708;53.114;9.388;2023-04-05T07:10:45;3.42;;;1.95;;
19151;SDS011;9708;53.114;9.388;2023-04-05T07:13:13;2.63;;;1.85;;
19151;SDS011;9708;53.114;9.388;2023-04-05T07:15:41;2.70;;;1.77;;
19151;SDS011;9708;53.114;9.388;2023-04-05T07:18:07;3.00;;;1.30;;
19151;SDS011;9708;53.114;9.388;2023-04-05T07:20:34;3.70;;;1.52;;
19151;SDS011;9708;53.114;9.388;2023-04-05T07:23:01;1.85;;;1.65;;
19151;SDS011;9708;53.114;9.388;2023-04-05T07:25:30;3.63;;;1.50;;
19151;SDS011;9708;53.114;9.388;2023-04-05T07:27:57;2.58;;;1.70;;
19151;SDS011;9708;53.114;9.388;2023-04-05T07:30:25;5.43;;;2.28;;
19151;SDS011;9708;53.114;9.388;2023-04-05T07:32:53;4.40;;;1.95;;
19151;SDS011;9708;53.114;9.388;2023-04-05T07:35:20;3.47;;;1.50;;
19151;SDS011;9708;53.114;9.388;2023-04-05T07:37:46;1.50;;;1.40;;
19151;SDS011;9708;53.114;9.388;2023-04-05T07:40:13;2.10;;;1.40;;
19151;SDS011;9708;53.114;9.388;2023-04-05T07:42:40;1.77;;;1.30;;
19151;SDS011;9708;53.114;9.388;2023-04-05T07:45:07;2.78;;;1.58;;
19151;SDS011;9708;53.114;9.388;2023-04-05T07:47:36;3.00;;;1.40;;
19151;SDS011;9708;53.114;9.388;2023-04-05T07:50:03;3.72;;;2.00;;
19151;SDS011;9708;53.114;9.388;2023-04-05T07:52:33;1.58;;;1.10;;
19151;SDS011;9708;53.114;9.388;2023-04-05T07:55:00;1.35;;;1.10;;
19151;SDS011;9708;53.114;9.388;2023-04-05T07:57:27;1.77;;;1.25;;
19151;SDS011;9708;53.114;9.388;2023-04-05T07:59:54;2.75;;;1.65;;
19151;SDS011;9708;53.114;9.388;2023-04-05T08:02:21;1.55;;;1.08;;
19151;SDS011;9708;53.114;9.388;2023-04-05T08:04:49;2.60;;;1.23;;
19151;SDS011;9708;53.114;9.388;2023-04-05T08:07:16;3.30;;;1.30;;
19151;SDS011;9708;53.114;9.388;2023-04-05T08:09:43;1.48;;;1.05;;
19151;SDS011;9708;53.114;9.388;2023-04-05T08:12:09;3.05;;;1.10;;
19151;SDS011;9708;53.114;9.388;2023-04-05T08:14:36;1.55;;;1.30;;
19151;SDS011;9708;53.114;9.388;2023-04-05T08:17:03;2.50;;;1.27;;
19151;SDS011;9708;53.114;9.388;2023-04-05T08:19:30;1.55;;;1.45;;
19151;SDS011;9708;53.114;9.388;2023-04-05T08:21:58;1.70;;;1.38;;
19151;SDS011;9708;53.114;9.388;2023-04-05T08:24:25;1.52;;;0.98;;
19151;SDS011;9708;53.114;9.388;2023-04-05T08:26:52;1.33;;;1.05;;
19151;SDS011;9708;53.114;9.388;2023-04-05T08:29:18;5.28;;;1.23;;
19151;SDS011;9708;53.114;9.388;2023-04-05T08:31:45;1.25;;;0.88;;
19151;SDS011;9708;53.114;9.388;2023-04-05T08:34:12;2.05;;;1.00;;
19151;SDS011;9708;53.114;9.388;2023-04-05T08:36:38;1.30;;;1.20;;
19151;SDS011;9708;53.114;9.388;2023-04-05T08:39:07;0.82;;;0.77;;
19151;SDS011;9708;53.114;9.388;2023-04-05T08:41:34;1.92;;;1.15;;
19151;SDS011;9708;53.114;9.388;2023-04-05T08:44:05;1.95;;;1.02;;
19151;SDS011;9708;53.114;9.388;2023-04-05T08:46:35;3.40;;;1.00;;
19151;SDS011;9708;53.114;9.388;2023-04-05T08:49:03;2.15;;;1.10;;
19151;SDS011;9708;53.114;9.388;2023-04-05T08:51:31;1.52;;;0.90;;
19151;SDS011;9708;53.114;9.388;2023-04-05T08:53:58;1.77;;;1.05;;
19151;SDS011;9708;53.114;9.388;2023-04-05T08:56:29;1.45;;;0.93;;
19151;SDS011;9708;53.114;9.388;2023-04-05T08:59:00;1.70;;;1.10;;
19151;SDS011;9708;53.114;9.388;2023-04-05T09:01:28;1.13;;;1.00;;
19151;SDS011;9708;53.114;9.388;2023-04-05T09:03:56;1.95;;;1.10;;
19151;SDS011;9708;53.114;9.388;2023-04-05T09:06:25;3.00;;;1.10;;
19151;SDS011;9708;53.114;9.388;2023-04-05T09:08:52;1.13;;;0.82;;
19151;SDS011;9708;53.114;9.388;2023-04-05T09:11:22;2.72;;;1.10;;
19151;SDS011;9708;53.114;9.388;2023-04-05T09:13:50;1.15;;;1.05;;
19151;SDS011;9708;53.114;9.388;2023-04-05T09:16:17;1.70;;;1.45;;
19151;SDS011;9708;53.114;9.388;2023-04-05T09:18:45;1.80;;;0.98;;
19151;SDS011;9708;53.114;9.388;2023-04-05T09:21:13;1.27;;;1.00;;
19151;SDS011;9708;53.114;9.388;2023-04-05T09:23:50;0.82;;;0.82;;
19151;SDS011;9708;53.114;9.388;2023-04-05T09:26:20;0.77;;;0.77;;
19151;SDS011;9708;53.114;9.388;2023-04-05T09:28:48;0.70;;;0.70;;
19151;SDS011;9708;53.114;9.388;2023-04-05T09:31:29;2.63;;;0.73;;
19151;SDS011;9708;53.114;9.388;2023-04-05T09:33:57;1.27;;;0.90;;
19151;SDS011;9708;53.114;9.388;2023-04-05T09:36:25;7.47;;;4.25;;
19151;SDS011;9708;53.114;9.388;2023-04-05T09:38:53;6.97;;;3.10;;
19151;SDS011;9708;53.114;9.388;2023-04-05T09:41:30;0.75;;;0.75;;
19151;SDS011;9708;53.114;9.388;2023-04-05T09:43:58;1.67;;;1.00;;
19151;SDS011;9708;53.114;9.388;2023-04-05T09:46:27;0.68;;;0.68;;
19151;SDS011;9708;53.114;9.388;2023-04-05T09:48:55;1.10;;;0.70;;
19151;SDS011;9708;53.114;9.388;2023-04-05T09:51:22;4.18;;;0.93;;
19151;SDS011;9708;53.114;9.388;2023-04-05T09:53:56;1.63;;;0.93;;
19151;SDS011;9708;53.114;9.388;2023-04-05T09:56:24;0.93;;;0.77;;
19151;SDS011;9708;53.114;9.388;2023-04-05T09:58:51;1.20;;;0.85;;
19151;SDS011;9708;53.114;9.388;2023-04-05T10:01:20;1.77;;;1.00;;
19151;SDS011;9708;53.114;9.388;2023-04-05T10:03:47;1.58;;;1.17;;
19151;SDS011;9708;53.114;9.388;2023-04-05T10:06:14;0.90;;;0.90;;
19151;SDS011;9708;53.114;9.388;2023-04-05T10:08:41;1.08;;;0.82;;
19151;SDS011;9708;53.114;9.388;2023-04-05T10:11:08;1.13;;;0.70;;
19151;SDS011;9708;53.114;9.388;2023-04-05T10:13:37;1.05;;;0.95;;
19151;SDS011;9708;53.114;9.388;2023-04-05T10:16:06;1.38;;;0.80;;
19151;SDS011;9708;53.114;9.388;2023-04-05T10:18:39;0.68;;;0.68;;
19151;SDS011;9708;53.114;9.388;2023-04-05T10:21:16;0.82;;;0.80;;
19151;SDS011;9708;53.114;9.388;2023-04-05T10:23:46;0.88;;;0.77;;
19151;SDS011;9708;53.114;9.388;2023-04-05T10:26:20;0.98;;;0.70;;
19151;SDS011;9708;53.114;9.388;2023-04-05T10:28:56;1.60;;;0.90;;
19151;SDS011;9708;53.114;9.388;2023-04-05T10:31:29;0.80;;;0.80;;
19151;SDS011;9708;53.114;9.388;2023-04-05T10:34:04;1.63;;;0.93;;
19151;SDS011;9708;53.114;9.388;2023-04-05T10:36:33;1.00;;;0.98;;
19151;SDS011;9708;53.114;9.388;2023-04-05T10:39:09;1.35;;;0.90;;
19151;SDS011;9708;53.114;9.388;2023-04-05T10:41:39;3.70;;;0.95;;
19151;SDS011;9708;53.114;9.388;2023-04-05T10:44:08;0.93;;;0.93;;
19151;SDS011;9708;53.114;9.388;2023-04-05T10:46:36;1.33;;;0.82;;
19151;SDS011;9708;53.114;9.388;2023-04-05T10:49:08;0.70;;;0.70;;
19151;SDS011;9708;53.114;9.388;2023-04-05T10:51:41;1.35;;;0.85;;
19151;SDS011;9708;53.114;9.388;2023-04-05T10:54:10;1.13;;;1.02;;
19151;SDS011;9708;53.114;9.388;2023-04-05T10:56:37;1.42;;;0.98;;
19151;SDS011;9708;53.114;9.388;2023-04-05T10:59:05;1.10;;;1.00;;
19151;SDS011;9708;53.114;9.388;2023-04-05T11:01:33;1.55;;;1.05;;
19151;SDS011;9708;53.114;9.388;2023-04-05T11:04:10;1.17;;;0.90;;
19151;SDS011;9708;53.114;9.388;2023-04-05T11:06:38;0.85;;;0.80;;
19151;SDS011;9708;53.114;9.388;2023-04-05T11:09:08;1.30;;;0.90;;
19151;SDS011;9708;53.114;9.388;2023-04-05T11:11:37;1.92;;;1.00;;
19151;SDS011;9708;53.114;9.388;2023-04-05T11:14:16;3.00;;;1.00;;
19151;SDS011;9708;53.114;9.388;2023-04-05T11:16:45;1.40;;;0.98;;
19151;SDS011;9708;53.114;9.388;2023-04-05T11:19:16;1.40;;;1.27;;
19151;SDS011;9708;53.114;9.388;2023-04-05T11:21:43;0.73;;;0.73;;
19151;SDS011;9708;53.114;9.388;2023-04-05T11:24:10;1.38;;;0.98;;
19151;SDS011;9708;53.114;9.388;2023-04-05T11:29:46;0.93;;;0.82;;
19151;SDS011;9708;53.114;9.388;2023-04-05T11:32:18;1.20;;;1.10;;
19151;SDS011;9708;53.114;9.388;2023-04-05T11:34:57;1.70;;;0.70;;
19151;SDS011;9708;53.114;9.388;2023-04-05T11:40:26;1.05;;;1.00;;
19151;SDS011;9708;53.114;9.388;2023-04-05T11:42:58;2.50;;;1.23;;
19151;SDS011;9708;53.114;9.388;2023-04-05T11:45:26;1.88;;;1.15;;
19151;SDS011;9708;53.114;9.388;2023-04-05T11:47:55;1.05;;;1.05;;
19151;SDS011;9708;53.114;9.388;2023-04-05T11:50:23;1.17;;;1.08;;
19151;SDS011;9708;53.114;9.388;2023-04-05T11:53:07;3.63;;;1.27;;
19151;SDS011;9708;53.114;9.388;2023-04-05T11:55:36;1.23;;;0.93;;
19151;SDS011;9708;53.114;9.388;2023-04-05T11:58:10;1.13;;;1.00;;
19151;SDS011;9708;53.114;9.388;2023-04-05T12:00:41;1.42;;;1.27;;
19151;SDS011;9708;53.114;9.388;2023-04-05T12:03:12;1.20;;;1.10;;
19151;SDS011;9708;53.114;9.388;2023-04-05T12:05:47;1.38;;;1.13;;
19151;SDS011;9708;53.114;9.388;2023-04-05T12:08:15;1.73;;;1.20;;
19151;SDS011;9708;53.114;9.388;2023-04-05T12:10:42;1.10;;;1.00;;
19151;SDS011;9708;53.114;9.388;2023-04-05T12:13:09;2.92;;;1.27;;
19151;SDS011;9708;53.114;9.388;2023-04-05T12:15:37;1.90;;;1.23;;
19151;SDS011;9708;53.114;9.388;2023-04-05T12:18:11;2.40;;;1.10;;
19151;SDS011;9708;53.114;9.388;2023-04-05T12:20:39;1.10;;;1.00;;
19151;SDS011;9708;53.114;9.388;2023-04-05T12:23:08;1.48;;;1.00;;
19151;SDS011;9708;53.114;9.388;2023-04-05T12:25:35;1.50;;;0.90;;
19151;SDS011;9708;53.114;9.388;2023-04-05T12:28:03;1.65;;;0.98;;
19151;SDS011;9708;53.114;9.388;2023-04-05T12:30:31;1.25;;;1.02;;
19151;SDS011;9708;53.114;9.388;2023-04-05T12:33:05;2.08;;;1.25;;
19151;SDS011;9708;53.114;9.388;2023-04-05T12:35:33;1.40;;;1.30;;
19151;SDS011;9708;53.114;9.388;2023-04-05T12:38:00;2.47;;;0.90;;
19151;SDS011;9708;53.114;9.388;2023-04-05T12:40:31;0.93;;;0.82;;
19151;SDS011;9708;53.114;9.388;2023-04-05T12:43:00;2.22;;;1.27;;
19151;SDS011;9708;53.114;9.388;2023-04-05T12:45:27;0.80;;;0.75;;
19151;SDS011;9708;53.114;9.388;2023-04-05T12:47:55;3.97;;;1.73;;
19151;SDS011;9708;53.114;9.388;2023-04-05T12:50:26;1.30;;;0.98;;
19151;SDS011;9708;53.114;9.388;2023-04-05T12:52:55;1.90;;;1.45;;
19151;SDS011;9708;53.114;9.388;2023-04-05T12:55:23;1.23;;;1.00;;
19151;SDS011;9708;53.114;9.388;2023-04-05T12:57:53;1.70;;;1.23;;
19151;SDS011;9708;53.114;9.388;2023-04-05T13:00:23;1.98;;;1.15;;
19151;SDS011;9708;53.114;9.388;2023-04-05T13:02:52;2.13;;;1.30;;
19151;SDS011;9708;53.114;9.388;2023-04-05T13:05:20;1.20;;;1.08;;
19151;SDS011;9708;53.114;9.388;2023-04-05T13:07:47;0.95;;;0.80;;
19151;SDS011;9708;53.114;9.388;2023-04-05T13:10:15;1.30;;;0.90;;
19151;SDS011;9708;53.114;9.388;2023-04-05T13:12:42;2.10;;;1.05;;
19151;SDS011;9708;53.114;9.388;2023-04-05T13:15:10;1.88;;;1.10;;
19151;SDS011;9708;53.114;9.388;2023-04-05T13:17:38;0.88;;;0.70;;
19151;SDS011;9708;53.114;9.388;2023-04-05T13:20:05;2.60;;;1.00;;
19151;SDS011;9708;53.114;9.388;2023-04-05T13:22:33;0.90;;;0.90;;
19151;SDS011;9708;53.114;9.388;2023-04-05T13:25:00;0.90;;;0.90;;
19151;SDS011;9708;53.114;9.388;2023-04-05T13:27:27;3.58;;;1.65;;
19151;SDS011;9708;53.114;9.388;2023-04-05T13:29:54;1.83;;;1.20;;
19151;SDS011;9708;53.114;9.388;2023-04-05T13:32:22;1.73;;;1.00;;
19151;SDS011;9708;53.114;9.388;2023-04-05T13:34:49;1.77;;;1.00;;
19151;SDS011;9708;53.114;9.388;2023-04-05T13:37:16;1.10;;;1.00;;
19151;SDS011;9708;53.114;9.388;2023-04-05T13:39:42;1.17;;;1.08;;
19151;SDS011;9708;53.114;9.388;2023-04-05T13:42:09;1.50;;;0.77;;
19151;SDS011;9708;53.114;9.388;2023-04-05T13:44:36;1.45;;;0.80;;
19151;SDS011;9708;53.114;9.388;2023-04-05T13:47:03;1.63;;;1.10;;
19151;SDS011;9708;53.114;9.388;2023-04-05T13:49:31;3.65;;;0.98;;
19151;SDS011;9708;53.114;9.388;2023-04-05T13:51:58;1.45;;;0.85;;
19151;SDS011;9708;53.114;9.388;2023-04-05T13:54:25;1.00;;;0.70;;
19151;SDS011;9708;53.114;9.388;2023-04-05T13:56:52;2.60;;;1.05;;
19151;SDS011;9708;53.114;9.388;2023-04-05T13:59:18;3.20;;;1.35;;
19151;SDS011;9708;53.114;9.388;2023-04-05T14:01:45;1.20;;;0.95;;
19151;SDS011;9708;53.114;9.388;2023-04-05T14:04:12;2.63;;;1.20;;
19151;SDS011;9708;53.114;9.388;2023-04-05T14:06:41;1.17;;;0.77;;
19151;SDS011;9708;53.114;9.388;2023-04-05T14:09:08;1.30;;;1.20;;
19151;SDS011;9708;53.114;9.388;2023-04-05T14:11:35;1.10;;;1.00;;
19151;SDS011;9708;53.114;9.388;2023-04-05T14:14:02;3.27;;;1.60;;
19151;SDS011;9708;53.114;9.388;2023-04-05T14:16:30;7.80;;;2.97;;
19151;SDS011;9708;53.114;9.388;2023-04-05T14:18:57;4.97;;;1.03;;
19151;SDS011;9708;53.114;9.388;2023-04-05T14:21:23;1.77;;;1.00;;
19151;SDS011;9708;53.114;9.388;2023-04-05T14:23:52;2.20;;;1.17;;
19151;SDS011;9708;53.114;9.388;2023-04-05T14:26:21;1.27;;;1.00;;
19151;SDS011;9708;53.114;9.388;2023-04-05T14:28:49;4.00;;;1.17;;
19151;SDS011;9708;53.114;9.388;2023-04-05T14:31:16;1.20;;;1.10;;
19151;SDS011;9708;53.114;9.388;2023-04-05T14:33:43;1.83;;;1.30;;
19151;SDS011;9708;53.114;9.388;2023-04-05T14:36:10;2.87;;;1.57;;
19151;SDS011;9708;53.114;9.388;2023-04-05T14:38:37;2.77;;;1.37;;
19151;SDS011;9708;53.114;9.388;2023-04-05T14:41:05;1.00;;;1.00;;
19151;SDS011;9708;53.114;9.388;2023-04-05T14:43:32;1.40;;;1.00;;
19151;SDS011;9708;53.114;9.388;2023-04-05T14:45:59;1.00;;;1.00;;
19151;SDS011;9708;53.114;9.388;2023-04-05T14:48:26;3.50;;;1.20;;
19151;SDS011;9708;53.114;9.388;2023-04-05T14:50:54;1.77;;;1.47;;
19151;SDS011;9708;53.114;9.388;2023-04-05T14:53:21;2.27;;;1.03;;
19151;SDS011;9708;53.114;9.388;2023-04-05T14:55:48;2.17;;;1.20;;
19151;SDS011;9708;53.114;9.388;2023-04-05T14:58:16;1.10;;;1.00;;
19151;SDS011;9708;53.114;9.388;2023-04-05T15:00:43;1.43;;;1.33;;
19151;SDS011;9708;53.114;9.388;2023-04-05T15:03:10;2.53;;;1.40;;
19151;SDS011;9708;53.114;9.388;2023-04-05T15:05:38;2.37;;;1.40;;
19151;SDS011;9708;53.114;9.388;2023-04-05T15:08:05;1.37;;;1.20;;
19151;SDS011;9708;53.114;9.388;2023-04-05T15:10:32;2.77;;;1.40;;
19151;SDS011;9708;53.114;9.388;2023-04-05T15:12:59;2.63;;;1.50;;
19151;SDS011;9708;53.114;9.388;2023-04-05T15:15:27;1.30;;;1.07;;